sensor_id;sensor_type;location;lat;lon;timestamp;P1;durP1;ratioP1;P2;durP2;ratioP2
23658;SDS011;12006;42.666;23.326;2023-08-21T00:02:19;7.82;;;6.68;;
23658;SDS011;12006;42.666;23.326;2023-08-21T00:05:43;8.95;;;6.47;;
23658;SDS011;12006;42.666;23.326;2023-08-21T00:09:06;6.75;;;5.80;;
23658;SDS011;12006;42.666;23.326;2023-08-21T00:12:31;7.82;;;6.40;;
23658;SDS011;12006;42.666;23.326;2023-08-21T00:15:55;7.38;;;6.07;;
23658;SDS011;12006;42.666;23.326;2023-08-21T00:19:18;6.28;;;5.68;;
23658;SDS011;12006;42.666;23.326;2023-08-21T00:22:43;6.30;;;5.70;;
23658;SDS011;12006;42.666;23.326;2023-08-21T00:26:07;7.13;;;5.85;;
23658;SDS011;12006;42.666;23.326;2023-08-21T00:29:31;6.32;;;5.72;;
23658;SDS011;12006;42.666;23.326;2023-08-21T00:32:55;6.63;;;6.03;;
23658;SDS011;12006;42.666;23.326;2023-08-21T00:36:19;7.68;;;6.43;;
23658;SDS011;12006;42.666;23.326;2023-08-21T00:39:44;6.43;;;5.82;;
23658;SDS011;12006;42.666;23.326;2023-08-21T00:43:08;7.13;;;6.50;;
23658;SDS011;12006;42.666;23.326;2023-08-21T00:46:32;6.63;;;6.03;;
23658;SDS011;12006;42.666;23.326;2023-08-21T00:49:56;7.43;;;6.22;;
23658;SDS011;12006;42.666;23.326;2023-08-21T00:53:20;6.72;;;6.13;;
23658;SDS011;12006;42.666;23.326;2023-08-21T00:56:45;7.18;;;6.45;;
23658;SDS011;12006;42.666;23.326;2023-08-21T01:00:10;7.57;;;5.93;;
23658;SDS011;12006;42.666;23.326;2023-08-21T01:03:34;6.30;;;5.70;;
23658;SDS011;12006;42.666;23.326;2023-08-21T01:06:58;6.97;;;6.28;;
23658;SDS011;12006;42.666;23.326;2023-08-21T01:10:36;7.05;;;6.35;;
23658;SDS011;12006;42.666;23.326;2023-08-21T01:17:49;6.68;;;6.03;;
23658;SDS011;12006;42.666;23.326;2023-08-21T01:21:15;6.78;;;6.22;;
23658;SDS011;12006;42.666;23.326;2023-08-21T01:24:39;7.13;;;6.53;;
23658;SDS011;12006;42.666;23.326;2023-08-21T01:28:03;7.00;;;6.30;;
23658;SDS011;12006;42.666;23.326;2023-08-21T01:31:29;12.43;;;6.65;;
23658;SDS011;12006;42.666;23.326;2023-08-21T01:34:58;8.05;;;7.25;;
23658;SDS011;12006;42.666;23.326;2023-08-21T01:38:24;8.05;;;7.30;;
23658;SDS011;12006;42.666;23.326;2023-08-21T01:41:48;8.77;;;7.97;;
23658;SDS011;12006;42.666;23.326;2023-08-21T01:45:12;8.65;;;7.75;;
23658;SDS011;12006;42.666;23.326;2023-08-21T01:48:37;8.50;;;7.40;;
23658;SDS011;12006;42.666;23.326;2023-08-21T01:52:01;7.53;;;6.82;;
23658;SDS011;12006;42.666;23.326;2023-08-21T01:55:25;8.10;;;6.95;;
23658;SDS011;12006;42.666;23.326;2023-08-21T01:58:49;7.32;;;6.63;;
23658;SDS011;12006;42.666;23.326;2023-08-21T02:02:13;7.30;;;6.60;;
23658;SDS011;12006;42.666;23.326;2023-08-21T02:05:37;8.43;;;6.47;;
23658;SDS011;12006;42.666;23.326;2023-08-21T02:09:01;8.88;;;6.85;;
23658;SDS011;12006;42.666;23.326;2023-08-21T02:12:25;7.80;;;7.10;;
23658;SDS011;12006;42.666;23.326;2023-08-21T02:15:49;7.05;;;6.35;;
23658;SDS011;12006;42.666;23.326;2023-08-21T02:19:13;7.30;;;6.60;;
23658;SDS011;12006;42.666;23.326;2023-08-21T02:22:37;6.25;;;5.75;;
23658;SDS011;12006;42.666;23.326;2023-08-21T02:26:01;7.70;;;7.00;;
23658;SDS011;12006;42.666;23.326;2023-08-21T02:29:25;6.50;;;5.90;;
23658;SDS011;12006;42.666;23.326;2023-08-21T02:32:52;7.10;;;6.30;;
23658;SDS011;12006;42.666;23.326;2023-08-21T02:36:16;8.43;;;7.05;;
23658;SDS011;12006;42.666;23.326;2023-08-21T02:39:40;8.20;;;6.65;;
23658;SDS011;12006;42.666;23.326;2023-08-21T02:43:04;8.23;;;7.05;;
23658;SDS011;12006;42.666;23.326;2023-08-21T02:46:28;7.38;;;6.53;;
23658;SDS011;12006;42.666;23.326;2023-08-21T02:49:52;7.13;;;6.53;;
23658;SDS011;12006;42.666;23.326;2023-08-21T02:53:16;6.55;;;5.93;;
23658;SDS011;12006;42.666;23.326;2023-08-21T02:56:40;7.30;;;6.60;;
23658;SDS011;12006;42.666;23.326;2023-08-21T03:00:04;7.10;;;6.40;;
23658;SDS011;12006;42.666;23.326;2023-08-21T03:03:29;7.30;;;6.60;;
23658;SDS011;12006;42.666;23.326;2023-08-21T03:06:52;7.63;;;6.80;;
23658;SDS011;12006;42.666;23.326;2023-08-21T03:10:17;7.82;;;7.13;;
23658;SDS011;12006;42.666;23.326;2023-08-21T03:13:41;7.60;;;6.95;;
23658;SDS011;12006;42.666;23.326;2023-08-21T03:17:05;7.15;;;6.45;;
23658;SDS011;12006;42.666;23.326;2023-08-21T03:20:29;7.97;;;7.18;;
23658;SDS011;12006;42.666;23.326;2023-08-21T03:23:56;7.65;;;6.95;;
23658;SDS011;12006;42.666;23.326;2023-08-21T03:27:21;9.40;;;7.03;;
23658;SDS011;12006;42.666;23.326;2023-08-21T03:30:45;8.32;;;7.20;;
23658;SDS011;12006;42.666;23.326;2023-08-21T03:34:11;8.07;;;7.05;;
23658;SDS011;12006;42.666;23.326;2023-08-21T03:37:35;7.93;;;6.60;;
23658;SDS011;12006;42.666;23.326;2023-08-21T03:40:59;8.13;;;7.43;;
23658;SDS011;12006;42.666;23.326;2023-08-21T03:44:23;9.63;;;8.10;;
23658;SDS011;12006;42.666;23.326;2023-08-21T03:47:47;8.50;;;7.65;;
23658;SDS011;12006;42.666;23.326;2023-08-21T03:51:11;9.18;;;7.57;;
23658;SDS011;12006;42.666;23.326;2023-08-21T03:54:35;9.00;;;8.02;;
23658;SDS011;12006;42.666;23.326;2023-08-21T03:57:59;8.88;;;7.88;;
23658;SDS011;12006;42.666;23.326;2023-08-21T04:01:23;9.60;;;7.28;;
23658;SDS011;12006;42.666;23.326;2023-08-21T04:04:47;8.50;;;7.70;;
23658;SDS011;12006;42.666;23.326;2023-08-21T04:08:11;10.02;;;9.02;;
23658;SDS011;12006;42.666;23.326;2023-08-21T04:11:35;9.70;;;8.68;;
23658;SDS011;12006;42.666;23.326;2023-08-21T04:14:59;9.10;;;8.30;;
23658;SDS011;12006;42.666;23.326;2023-08-21T04:18:24;9.43;;;7.97;;
23658;SDS011;12006;42.666;23.326;2023-08-21T04:21:48;10.88;;;9.35;;
23658;SDS011;12006;42.666;23.326;2023-08-21T04:25:12;10.60;;;9.65;;
23658;SDS011;12006;42.666;23.326;2023-08-21T04:28:36;11.20;;;9.13;;
23658;SDS011;12006;42.666;23.326;2023-08-21T04:32:00;9.50;;;8.60;;
23658;SDS011;12006;42.666;23.326;2023-08-21T04:35:25;11.15;;;8.32;;
23658;SDS011;12006;42.666;23.326;2023-08-21T04:38:49;9.77;;;8.77;;
23658;SDS011;12006;42.666;23.326;2023-08-21T04:42:16;9.95;;;8.98;;
23658;SDS011;12006;42.666;23.326;2023-08-21T04:45:50;8.93;;;8.02;;
23658;SDS011;12006;42.666;23.326;2023-08-21T04:49:15;10.57;;;8.18;;
23658;SDS011;12006;42.666;23.326;2023-08-21T04:52:40;9.02;;;8.13;;
23658;SDS011;12006;42.666;23.326;2023-08-21T04:56:04;10.10;;;8.05;;
23658;SDS011;12006;42.666;23.326;2023-08-21T04:59:28;20.63;;;17.10;;
23658;SDS011;12006;42.666;23.326;2023-08-21T05:02:52;11.57;;;10.23;;
23658;SDS011;12006;42.666;23.326;2023-08-21T05:06:16;12.82;;;11.05;;
23658;SDS011;12006;42.666;23.326;2023-08-21T05:09:40;10.77;;;8.35;;
23658;SDS011;12006;42.666;23.326;2023-08-21T05:13:04;9.07;;;8.02;;
23658;SDS011;12006;42.666;23.326;2023-08-21T05:16:28;8.50;;;7.70;;
23658;SDS011;12006;42.666;23.326;2023-08-21T05:19:52;10.23;;;9.25;;
23658;SDS011;12006;42.666;23.326;2023-08-21T05:23:18;9.23;;;8.32;;
23658;SDS011;12006;42.666;23.326;2023-08-21T05:26:42;10.52;;;8.55;;
23658;SDS011;12006;42.666;23.326;2023-08-21T05:30:06;10.00;;;8.25;;
23658;SDS011;12006;42.666;23.326;2023-08-21T05:33:30;11.65;;;8.02;;
23658;SDS011;12006;42.666;23.326;2023-08-21T05:36:54;10.35;;;9.10;;
23658;SDS011;12006;42.666;23.326;2023-08-21T05:40:18;10.85;;;8.55;;
23658;SDS011;12006;42.666;23.326;2023-08-21T05:43:42;13.40;;;8.15;;
23658;SDS011;12006;42.666;23.326;2023-08-21T05:47:06;9.20;;;8.10;;
23658;SDS011;12006;42.666;23.326;2023-08-21T05:50:31;9.35;;;8.23;;
23658;SDS011;12006;42.666;23.326;2023-08-21T05:53:55;7.72;;;6.93;;
23658;SDS011;12006;42.666;23.326;2023-08-21T05:57:19;7.43;;;6.72;;
23658;SDS011;12006;42.666;23.326;2023-08-21T06:00:43;10.20;;;6.82;;
23658;SDS011;12006;42.666;23.326;2023-08-21T06:04:07;8.40;;;7.63;;
23658;SDS011;12006;42.666;23.326;2023-08-21T06:07:32;7.00;;;6.30;;
23658;SDS011;12006;42.666;23.326;2023-08-21T06:10:56;8.52;;;6.55;;
23658;SDS011;12006;42.666;23.326;2023-08-21T06:14:20;6.25;;;5.72;;
23658;SDS011;12006;42.666;23.326;2023-08-21T06:17:44;7.47;;;5.55;;
23658;SDS011;12006;42.666;23.326;2023-08-21T06:21:08;8.57;;;5.72;;
23658;SDS011;12006;42.666;23.326;2023-08-21T06:24:32;6.50;;;5.90;;
23658;SDS011;12006;42.666;23.326;2023-08-21T06:27:57;7.30;;;6.28;;
23658;SDS011;12006;42.666;23.326;2023-08-21T06:31:22;7.22;;;6.55;;
23658;SDS011;12006;42.666;23.326;2023-08-21T06:34:46;7.35;;;6.65;;
23658;SDS011;12006;42.666;23.326;2023-08-21T06:38:09;6.53;;;5.80;;
23658;SDS011;12006;42.666;23.326;2023-08-21T06:41:34;8.40;;;5.85;;
23658;SDS011;12006;42.666;23.326;2023-08-21T06:44:58;6.20;;;5.60;;
23658;SDS011;12006;42.666;23.326;2023-08-21T06:48:21;6.75;;;5.25;;
23658;SDS011;12006;42.666;23.326;2023-08-21T06:51:45;9.10;;;7.78;;
23658;SDS011;12006;42.666;23.326;2023-08-21T06:55:09;5.90;;;5.22;;
23658;SDS011;12006;42.666;23.326;2023-08-21T06:58:33;8.82;;;5.93;;
23658;SDS011;12006;42.666;23.326;2023-08-21T07:02:01;9.02;;;5.53;;
23658;SDS011;12006;42.666;23.326;2023-08-21T07:05:25;6.70;;;5.75;;
23658;SDS011;12006;42.666;23.326;2023-08-21T07:08:49;6.95;;;4.95;;
23658;SDS011;12006;42.666;23.326;2023-08-21T07:12:15;7.38;;;5.65;;
23658;SDS011;12006;42.666;23.326;2023-08-21T07:15:39;6.20;;;5.53;;
23658;SDS011;12006;42.666;23.326;2023-08-21T07:19:02;6.38;;;4.55;;
23658;SDS011;12006;42.666;23.326;2023-08-21T07:22:28;5.22;;;4.72;;
23658;SDS011;12006;42.666;23.326;2023-08-21T07:25:52;5.10;;;4.60;;
23658;SDS011;12006;42.666;23.326;2023-08-21T07:29:16;5.20;;;4.70;;
23658;SDS011;12006;42.666;23.326;2023-08-21T07:32:41;7.18;;;6.18;;
23658;SDS011;12006;42.666;23.326;2023-08-21T07:36:05;6.38;;;5.38;;
23658;SDS011;12006;42.666;23.326;2023-08-21T07:39:29;5.25;;;4.75;;
23658;SDS011;12006;42.666;23.326;2023-08-21T07:42:53;5.80;;;4.80;;
23658;SDS011;12006;42.666;23.326;2023-08-21T07:46:17;5.53;;;4.93;;
23658;SDS011;12006;42.666;23.326;2023-08-21T07:49:41;5.32;;;4.82;;
23658;SDS011;12006;42.666;23.326;2023-08-21T07:53:05;6.40;;;5.63;;
23658;SDS011;12006;42.666;23.326;2023-08-21T07:56:28;6.57;;;5.18;;
23658;SDS011;12006;42.666;23.326;2023-08-21T07:59:56;5.47;;;4.97;;
23658;SDS011;12006;42.666;23.326;2023-08-21T08:03:20;6.07;;;5.57;;
23658;SDS011;12006;42.666;23.326;2023-08-21T08:06:45;6.43;;;5.72;;
23658;SDS011;12006;42.666;23.326;2023-08-21T08:10:09;6.00;;;5.40;;
23658;SDS011;12006;42.666;23.326;2023-08-21T08:13:33;5.85;;;5.22;;
23658;SDS011;12006;42.666;23.326;2023-08-21T08:16:57;5.47;;;4.97;;
23658;SDS011;12006;42.666;23.326;2023-08-21T08:20:22;5.07;;;4.63;;
23658;SDS011;12006;42.666;23.326;2023-08-21T08:23:46;5.65;;;5.13;;
23658;SDS011;12006;42.666;23.326;2023-08-21T08:27:10;5.00;;;4.60;;
23658;SDS011;12006;42.666;23.326;2023-08-21T08:30:34;5.72;;;5.22;;
23658;SDS011;12006;42.666;23.326;2023-08-21T08:33:58;5.40;;;4.90;;
23658;SDS011;12006;42.666;23.326;2023-08-21T08:37:22;4.88;;;4.47;;
23658;SDS011;12006;42.666;23.326;2023-08-21T08:40:46;5.25;;;4.85;;
23658;SDS011;12006;42.666;23.326;2023-08-21T08:44:19;4.75;;;4.35;;
23658;SDS011;12006;42.666;23.326;2023-08-21T08:47:49;5.63;;;5.13;;
23658;SDS011;12006;42.666;23.326;2023-08-21T08:51:13;6.47;;;5.82;;
23658;SDS011;12006;42.666;23.326;2023-08-21T08:54:37;6.20;;;5.60;;
23658;SDS011;12006;42.666;23.326;2023-08-21T08:58:01;6.18;;;5.40;;
23658;SDS011;12006;42.666;23.326;2023-08-21T09:01:25;5.72;;;5.22;;
23658;SDS011;12006;42.666;23.326;2023-08-21T09:04:50;5.78;;;4.65;;
23658;SDS011;12006;42.666;23.326;2023-08-21T09:08:14;4.72;;;4.32;;
23658;SDS011;12006;42.666;23.326;2023-08-21T09:11:42;6.88;;;5.47;;
23658;SDS011;12006;42.666;23.326;2023-08-21T09:15:09;5.35;;;4.85;;
23658;SDS011;12006;42.666;23.326;2023-08-21T09:18:34;7.15;;;5.13;;
23658;SDS011;12006;42.666;23.326;2023-08-21T09:21:58;4.85;;;4.40;;
23658;SDS011;12006;42.666;23.326;2023-08-21T09:25:23;7.18;;;5.97;;
23658;SDS011;12006;42.666;23.326;2023-08-21T09:28:48;5.30;;;4.80;;
23658;SDS011;12006;42.666;23.326;2023-08-21T09:32:12;5.15;;;4.75;;
23658;SDS011;12006;42.666;23.326;2023-08-21T09:35:37;6.07;;;5.47;;
23658;SDS011;12006;42.666;23.326;2023-08-21T09:39:03;5.10;;;4.63;;
23658;SDS011;12006;42.666;23.326;2023-08-21T09:42:32;5.25;;;4.40;;
23658;SDS011;12006;42.666;23.326;2023-08-21T09:45:56;4.60;;;4.20;;
23658;SDS011;12006;42.666;23.326;2023-08-21T09:49:20;5.93;;;4.53;;
23658;SDS011;12006;42.666;23.326;2023-08-21T09:52:45;7.82;;;7.18;;
23658;SDS011;12006;42.666;23.326;2023-08-21T09:56:09;6.28;;;5.63;;
23658;SDS011;12006;42.666;23.326;2023-08-21T09:59:34;5.45;;;4.97;;
23658;SDS011;12006;42.666;23.326;2023-08-21T10:03:04;4.57;;;4.22;;
23658;SDS011;12006;42.666;23.326;2023-08-21T10:06:29;5.15;;;4.65;;
23658;SDS011;12006;42.666;23.326;2023-08-21T10:09:54;4.40;;;4.00;;
23658;SDS011;12006;42.666;23.326;2023-08-21T10:13:20;4.80;;;4.40;;
23658;SDS011;12006;42.666;23.326;2023-08-21T10:16:44;4.50;;;4.20;;
23658;SDS011;12006;42.666;23.326;2023-08-21T10:20:08;4.93;;;4.53;;
23658;SDS011;12006;42.666;23.326;2023-08-21T10:23:46;5.70;;;4.97;;
23658;SDS011;12006;42.666;23.326;2023-08-21T10:27:10;4.80;;;4.40;;
23658;SDS011;12006;42.666;23.326;2023-08-21T10:30:34;5.10;;;4.63;;
23658;SDS011;12006;42.666;23.326;2023-08-21T10:34:07;4.00;;;3.70;;
23658;SDS011;12006;42.666;23.326;2023-08-21T10:37:50;4.97;;;4.57;;
23658;SDS011;12006;42.666;23.326;2023-08-21T10:41:26;4.72;;;4.32;;
23658;SDS011;12006;42.666;23.326;2023-08-21T10:45:10;4.03;;;3.72;;
23658;SDS011;12006;42.666;23.326;2023-08-21T10:48:35;5.22;;;4.72;;
23658;SDS011;12006;42.666;23.326;2023-08-21T10:51:59;4.93;;;4.22;;
23658;SDS011;12006;42.666;23.326;2023-08-21T10:55:24;7.53;;;6.93;;
23658;SDS011;12006;42.666;23.326;2023-08-21T10:58:50;5.93;;;4.40;;
23658;SDS011;12006;42.666;23.326;2023-08-21T11:02:15;4.00;;;3.70;;
23658;SDS011;12006;42.666;23.326;2023-08-21T11:05:40;4.40;;;4.03;;
23658;SDS011;12006;42.666;23.326;2023-08-21T11:09:04;4.43;;;3.88;;
23658;SDS011;12006;42.666;23.326;2023-08-21T11:12:29;4.80;;;4.40;;
23658;SDS011;12006;42.666;23.326;2023-08-21T11:15:59;4.53;;;4.13;;
23658;SDS011;12006;42.666;23.326;2023-08-21T11:19:24;5.47;;;5.07;;
23658;SDS011;12006;42.666;23.326;2023-08-21T11:22:56;5.13;;;4.63;;
23658;SDS011;12006;42.666;23.326;2023-08-21T11:26:20;4.63;;;4.30;;
23658;SDS011;12006;42.666;23.326;2023-08-21T11:29:45;6.50;;;5.90;;
23658;SDS011;12006;42.666;23.326;2023-08-21T11:33:10;5.10;;;4.43;;
23658;SDS011;12006;42.666;23.326;2023-08-21T11:36:35;4.93;;;4.50;;
23658;SDS011;12006;42.666;23.326;2023-08-21T11:39:59;5.50;;;4.10;;
23658;SDS011;12006;42.666;23.326;2023-08-21T11:47:04;4.25;;;3.95;;
23658;SDS011;12006;42.666;23.326;2023-08-21T11:50:28;4.32;;;3.92;;
23658;SDS011;12006;42.666;23.326;2023-08-21T11:53:52;6.80;;;6.20;;
23658;SDS011;12006;42.666;23.326;2023-08-21T11:57:17;5.15;;;4.72;;
23658;SDS011;12006;42.666;23.326;2023-08-21T12:00:43;7.10;;;4.22;;
23658;SDS011;12006;42.666;23.326;2023-08-21T12:04:14;4.57;;;4.18;;
23658;SDS011;12006;42.666;23.326;2023-08-21T12:07:39;4.65;;;4.25;;
23658;SDS011;12006;42.666;23.326;2023-08-21T12:11:04;4.80;;;4.13;;
23658;SDS011;12006;42.666;23.326;2023-08-21T12:14:28;4.40;;;3.85;;
23658;SDS011;12006;42.666;23.326;2023-08-21T12:17:52;5.00;;;4.60;;
23658;SDS011;12006;42.666;23.326;2023-08-21T12:21:17;5.80;;;5.20;;
23658;SDS011;12006;42.666;23.326;2023-08-21T12:24:41;4.32;;;4.03;;
23658;SDS011;12006;42.666;23.326;2023-08-21T12:28:05;4.13;;;3.72;;
23658;SDS011;12006;42.666;23.326;2023-08-21T12:31:29;5.45;;;4.63;;
23658;SDS011;12006;42.666;23.326;2023-08-21T12:34:53;5.03;;;4.60;;
23658;SDS011;12006;42.666;23.326;2023-08-21T12:38:17;5.70;;;5.30;;
23658;SDS011;12006;42.666;23.326;2023-08-21T12:41:41;3.75;;;3.55;;
23658;SDS011;12006;42.666;23.326;2023-08-21T12:45:06;4.30;;;3.95;;
23658;SDS011;12006;42.666;23.326;2023-08-21T12:48:30;4.13;;;3.72;;
23658;SDS011;12006;42.666;23.326;2023-08-21T12:51:54;6.30;;;4.63;;
23658;SDS011;12006;42.666;23.326;2023-08-21T12:55:18;4.30;;;3.90;;
23658;SDS011;12006;42.666;23.326;2023-08-21T12:58:42;4.45;;;4.15;;
23658;SDS011;12006;42.666;23.326;2023-08-21T13:02:06;4.47;;;4.07;;
23658;SDS011;12006;42.666;23.326;2023-08-21T13:05:30;4.32;;;3.92;;
23658;SDS011;12006;42.666;23.326;2023-08-21T13:08:54;4.43;;;4.05;;
23658;SDS011;12006;42.666;23.326;2023-08-21T13:12:18;6.03;;;4.85;;
23658;SDS011;12006;42.666;23.326;2023-08-21T13:15:42;5.63;;;5.20;;
23658;SDS011;12006;42.666;23.326;2023-08-21T13:19:06;5.00;;;4.40;;
23658;SDS011;12006;42.666;23.326;2023-08-21T13:22:44;4.50;;;4.20;;
23658;SDS011;12006;42.666;23.326;2023-08-21T13:26:08;6.90;;;4.25;;
23658;SDS011;12006;42.666;23.326;2023-08-21T13:29:32;6.68;;;3.70;;
23658;SDS011;12006;42.666;23.326;2023-08-21T13:32:59;4.68;;;4.28;;
23658;SDS011;12006;42.666;23.326;2023-08-21T13:36:23;4.93;;;4.28;;
23658;SDS011;12006;42.666;23.326;2023-08-21T13:39:48;4.35;;;4.05;;
23658;SDS011;12006;42.666;23.326;2023-08-21T13:43:12;4.50;;;4.07;;
23658;SDS011;12006;42.666;23.326;2023-08-21T13:46:36;4.13;;;3.78;;
23658;SDS011;12006;42.666;23.326;2023-08-21T13:50:00;4.40;;;4.00;;
23658;SDS011;12006;42.666;23.326;2023-08-21T13:53:24;4.35;;;4.05;;
23658;SDS011;12006;42.666;23.326;2023-08-21T13:56:48;6.45;;;4.63;;
23658;SDS011;12006;42.666;23.326;2023-08-21T14:00:12;5.15;;;4.32;;
23658;SDS011;12006;42.666;23.326;2023-08-21T14:03:36;4.78;;;4.47;;
23658;SDS011;12006;42.666;23.326;2023-08-21T14:07:00;5.72;;;4.32;;
23658;SDS011;12006;42.666;23.326;2023-08-21T14:10:24;5.50;;;5.00;;
23658;SDS011;12006;42.666;23.326;2023-08-21T14:13:48;4.95;;;4.55;;
23658;SDS011;12006;42.666;23.326;2023-08-21T14:17:12;7.05;;;6.40;;
23658;SDS011;12006;42.666;23.326;2023-08-21T14:20:36;6.57;;;5.90;;
23658;SDS011;12006;42.666;23.326;2023-08-21T14:24:00;5.18;;;4.32;;
23658;SDS011;12006;42.666;23.326;2023-08-21T14:27:24;4.90;;;4.47;;
23658;SDS011;12006;42.666;23.326;2023-08-21T14:30:48;4.25;;;3.92;;
23658;SDS011;12006;42.666;23.326;2023-08-21T14:34:13;5.38;;;4.20;;
23658;SDS011;12006;42.666;23.326;2023-08-21T14:37:37;4.45;;;4.05;;
23658;SDS011;12006;42.666;23.326;2023-08-21T14:41:01;4.93;;;4.32;;
23658;SDS011;12006;42.666;23.326;2023-08-21T14:44:26;4.20;;;3.80;;
23658;SDS011;12006;42.666;23.326;2023-08-21T14:47:50;5.55;;;4.90;;
23658;SDS011;12006;42.666;23.326;2023-08-21T14:51:14;5.00;;;4.70;;
23658;SDS011;12006;42.666;23.326;2023-08-21T14:54:38;4.50;;;4.10;;
23658;SDS011;12006;42.666;23.326;2023-08-21T14:58:02;5.03;;;4.38;;
23658;SDS011;12006;42.666;23.326;2023-08-21T15:01:26;4.78;;;4.20;;
23658;SDS011;12006;42.666;23.326;2023-08-21T15:04:49;4.78;;;4.38;;
23658;SDS011;12006;42.666;23.326;2023-08-21T15:08:13;4.40;;;4.00;;
23658;SDS011;12006;42.666;23.326;2023-08-21T15:11:38;6.20;;;4.53;;
23658;SDS011;12006;42.666;23.326;2023-08-21T15:15:02;4.53;;;4.13;;
23658;SDS011;12006;42.666;23.326;2023-08-21T15:18:26;5.68;;;5.18;;
23658;SDS011;12006;42.666;23.326;2023-08-21T15:21:50;5.63;;;5.13;;
23658;SDS011;12006;42.666;23.326;2023-08-21T15:25:16;5.80;;;5.30;;
23658;SDS011;12006;42.666;23.326;2023-08-21T15:28:40;4.70;;;4.30;;
23658;SDS011;12006;42.666;23.326;2023-08-21T15:32:04;4.78;;;4.35;;
23658;SDS011;12006;42.666;23.326;2023-08-21T15:35:28;4.70;;;4.30;;
23658;SDS011;12006;42.666;23.326;2023-08-21T15:38:52;5.00;;;4.60;;
23658;SDS011;12006;42.666;23.326;2023-08-21T15:42:17;17.92;;;16.30;;
23658;SDS011;12006;42.666;23.326;2023-08-21T15:45:41;5.93;;;5.43;;
23658;SDS011;12006;42.666;23.326;2023-08-21T15:49:08;5.57;;;4.70;;
23658;SDS011;12006;42.666;23.326;2023-08-21T15:52:33;4.70;;;4.28;;
23658;SDS011;12006;42.666;23.326;2023-08-21T15:55:57;4.40;;;3.97;;
23658;SDS011;12006;42.666;23.326;2023-08-21T15:59:21;5.43;;;4.88;;
23658;SDS011;12006;42.666;23.326;2023-08-21T16:02:48;5.05;;;4.65;;
23658;SDS011;12006;42.666;23.326;2023-08-21T16:06:12;5.82;;;5.13;;
23658;SDS011;12006;42.666;23.326;2023-08-21T16:09:36;8.40;;;4.32;;
23658;SDS011;12006;42.666;23.326;2023-08-21T16:13:01;5.75;;;4.53;;
23658;SDS011;12006;42.666;23.326;2023-08-21T16:16:26;5.38;;;4.95;;
23658;SDS011;12006;42.666;23.326;2023-08-21T16:19:50;5.50;;;5.00;;
23658;SDS011;12006;42.666;23.326;2023-08-21T16:23:14;5.05;;;4.40;;
23658;SDS011;12006;42.666;23.326;2023-08-21T16:26:38;5.70;;;5.20;;
23658;SDS011;12006;42.666;23.326;2023-08-21T16:30:02;5.32;;;4.47;;
23658;SDS011;12006;42.666;23.326;2023-08-21T16:33:26;5.60;;;5.10;;
23658;SDS011;12006;42.666;23.326;2023-08-21T16:36:50;6.13;;;5.63;;
23658;SDS011;12006;42.666;23.326;2023-08-21T16:40:14;5.55;;;5.15;;
23658;SDS011;12006;42.666;23.326;2023-08-21T16:43:38;5.63;;;5.13;;
23658;SDS011;12006;42.666;23.326;2023-08-21T16:47:02;6.32;;;5.72;;
23658;SDS011;12006;42.666;23.326;2023-08-21T16:50:26;6.55;;;5.95;;
23658;SDS011;12006;42.666;23.326;2023-08-21T16:53:50;6.82;;;5.90;;
23658;SDS011;12006;42.666;23.326;2023-08-21T16:57:14;5.15;;;4.72;;
23658;SDS011;12006;42.666;23.326;2023-08-21T17:00:40;5.82;;;5.18;;
23658;SDS011;12006;42.666;23.326;2023-08-21T17:04:04;6.00;;;5.60;;
23658;SDS011;12006;42.666;23.326;2023-08-21T17:07:30;5.78;;;5.28;;
23658;SDS011;12006;42.666;23.326;2023-08-21T17:10:54;5.53;;;5.13;;
23658;SDS011;12006;42.666;23.326;2023-08-21T17:14:18;5.63;;;5.10;;
23658;SDS011;12006;42.666;23.326;2023-08-21T17:17:42;6.35;;;5.72;;
23658;SDS011;12006;42.666;23.326;2023-08-21T17:21:06;6.60;;;5.97;;
23658;SDS011;12006;42.666;23.326;2023-08-21T17:24:30;5.80;;;5.40;;
23658;SDS011;12006;42.666;23.326;2023-08-21T17:27:55;6.13;;;5.63;;
23658;SDS011;12006;42.666;23.326;2023-08-21T17:31:19;6.75;;;6.10;;
23658;SDS011;12006;42.666;23.326;2023-08-21T17:34:43;5.65;;;5.15;;
23658;SDS011;12006;42.666;23.326;2023-08-21T17:38:07;6.25;;;5.65;;
23658;SDS011;12006;42.666;23.326;2023-08-21T17:41:31;6.63;;;6.00;;
23658;SDS011;12006;42.666;23.326;2023-08-21T17:44:55;7.20;;;6.03;;
23658;SDS011;12006;42.666;23.326;2023-08-21T17:48:18;6.45;;;5.95;;
23658;SDS011;12006;42.666;23.326;2023-08-21T17:51:43;7.00;;;6.18;;
23658;SDS011;12006;42.666;23.326;2023-08-21T17:55:07;7.57;;;6.00;;
23658;SDS011;12006;42.666;23.326;2023-08-21T17:58:32;7.70;;;6.50;;
23658;SDS011;12006;42.666;23.326;2023-08-21T18:01:56;6.47;;;5.88;;
23658;SDS011;12006;42.666;23.326;2023-08-21T18:05:20;6.95;;;6.32;;
23658;SDS011;12006;42.666;23.326;2023-08-21T18:08:49;7.25;;;5.85;;
23658;SDS011;12006;42.666;23.326;2023-08-21T18:12:13;6.43;;;5.82;;
23658;SDS011;12006;42.666;23.326;2023-08-21T18:15:37;7.18;;;6.47;;
23658;SDS011;12006;42.666;23.326;2023-08-21T18:19:01;7.18;;;6.47;;
23658;SDS011;12006;42.666;23.326;2023-08-21T18:22:25;6.93;;;6.20;;
23658;SDS011;12006;42.666;23.326;2023-08-21T18:25:50;7.03;;;6.40;;
23658;SDS011;12006;42.666;23.326;2023-08-21T18:29:16;9.40;;;6.47;;
23658;SDS011;12006;42.666;23.326;2023-08-21T18:32:42;6.93;;;6.30;;
23658;SDS011;12006;42.666;23.326;2023-08-21T18:36:06;7.93;;;7.32;;
23658;SDS011;12006;42.666;23.326;2023-08-21T18:39:33;8.27;;;7.43;;
23658;SDS011;12006;42.666;23.326;2023-08-21T18:42:57;6.68;;;6.07;;
23658;SDS011;12006;42.666;23.326;2023-08-21T18:46:21;7.35;;;6.72;;
23658;SDS011;12006;42.666;23.326;2023-08-21T18:49:49;6.72;;;6.07;;
23658;SDS011;12006;42.666;23.326;2023-08-21T18:53:13;6.95;;;6.45;;
23658;SDS011;12006;42.666;23.326;2023-08-21T18:56:37;7.38;;;6.75;;
23658;SDS011;12006;42.666;23.326;2023-08-21T19:00:02;6.97;;;6.30;;
23658;SDS011;12006;42.666;23.326;2023-08-21T19:03:27;6.93;;;6.32;;
23658;SDS011;12006;42.666;23.326;2023-08-21T19:06:51;7.82;;;6.90;;
23658;SDS011;12006;42.666;23.326;2023-08-21T19:10:16;8.20;;;7.00;;
23658;SDS011;12006;42.666;23.326;2023-08-21T19:13:40;7.15;;;6.55;;
23658;SDS011;12006;42.666;23.326;2023-08-21T19:17:04;6.82;;;6.22;;
23658;SDS011;12006;42.666;23.326;2023-08-21T19:20:29;7.57;;;6.93;;
23658;SDS011;12006;42.666;23.326;2023-08-21T19:23:53;7.85;;;6.80;;
23658;SDS011;12006;42.666;23.326;2023-08-21T19:27:17;7.15;;;6.45;;
23658;SDS011;12006;42.666;23.326;2023-08-21T19:30:41;7.20;;;6.50;;
23658;SDS011;12006;42.666;23.326;2023-08-21T19:34:05;7.85;;;7.15;;
23658;SDS011;12006;42.666;23.326;2023-08-21T19:37:32;7.43;;;6.72;;
23658;SDS011;12006;42.666;23.326;2023-08-21T19:40:57;8.38;;;7.47;;
23658;SDS011;12006;42.666;23.326;2023-08-21T19:44:21;9.27;;;7.57;;
23658;SDS011;12006;42.666;23.326;2023-08-21T19:47:45;7.95;;;7.15;;
23658;SDS011;12006;42.666;23.326;2023-08-21T19:51:09;8.15;;;7.45;;
23658;SDS011;12006;42.666;23.326;2023-08-21T19:54:33;7.03;;;6.43;;
23658;SDS011;12006;42.666;23.326;2023-08-21T19:57:57;7.50;;;6.60;;
23658;SDS011;12006;42.666;23.326;2023-08-21T20:01:21;7.40;;;6.80;;
23658;SDS011;12006;42.666;23.326;2023-08-21T20:04:45;7.10;;;6.50;;
23658;SDS011;12006;42.666;23.326;2023-08-21T20:08:10;7.55;;;6.72;;
23658;SDS011;12006;42.666;23.326;2023-08-21T20:11:35;7.15;;;6.55;;
23658;SDS011;12006;42.666;23.326;2023-08-21T20:15:00;7.97;;;7.10;;
23658;SDS011;12006;42.666;23.326;2023-08-21T20:18:25;8.15;;;7.45;;
23658;SDS011;12006;42.666;23.326;2023-08-21T20:21:50;7.78;;;7.07;;